Granite Falls, NC

7:02 AM EST on March 04, 2015 (GMT -0500)
Hickory Regional | Change Station
CLOSE
Current Station
Airport
Location: Hickory,
Elevation: 1188 ft
Nearby Weather Stations
Active Advisory: Dense Fog Advisory

Elev 1188 ft 35.74 °N, 81.38 °W | Updated 9 minutes ago

Overcast
Overcast
50 °F
Feels Like 50 °F
N
8
Wind Variable Wind from SSW

Today
High -- | Low -- °F
--% Chance of Precip.
Yesterday
High -- | Low -- °F
Precip. -- in
6:52 AM 6:23 PM
Waxing Gibbous, 99% visible
Pressure 29.92 in
Visibility 4.0 miles
Clouds Overcast 400 ft
Dew Point 49 °F
Humidity 96%
Rainfall 0.00 in
Snow Depth Not available.
UV 0 out of 12
Pollen 3.20 out of 12
Air Quality Not available.
Flu Activity Not available.
METAR KHKY 041153Z 21007KT 4SM BR OVC004 10/09 A2994 RMK AO2 CIG 002V008 SLP131 70010 T01000094 10100 20056 56006

More Conditions Fewer Conditions

Pressure 29.92 in
Visibility 4.0 miles
Clouds Overcast 400 ft
Dew Point 49 °F
Humidity 96%
Rainfall 0.00 in
Snow Depth Not available.
UV 0 out of 12
Pollen 3.20 out of 12
Air Quality Not available.
Flu Activity Not available.
METAR KHKY 041153Z 21007KT 4SM BR OVC004 10/09 A2994 RMK AO2 CIG 002V008 SLP131 70010 T01000094 10100 20056 56006

More Conditions Fewer Conditions

10-Day Weather Forecast

Almanac

Astronomy

Mar. 04, 2015 Rise Set
Actual Time
Civil Twilight
Nautical Twilight
Astronomical Twilight
Moon
Length of Visible Light
Length of Day
Tomorrow will be .
, % of the Moon is Illuminated

Today's Extremes

State Highs State Lows

Community

WunderPhotos

Upload Photos

1,802,436 photos uploaded!

WunderBlogs® & News

Nearby

Air Quality

  Air Quality AQ Index Pollutant
Not available.

Snow Depth

Station Depth Elevation

Earthquake Activity

City Distance Mag. Time & Date
Minimum magnitude displayed is 2.5.

Coastal Water Temperatures

Place Temperature

Nearby Weather Stations

Dense Fog Advisory
Statement as of 6:52 AM EST on March 04, 2015

... Dense fog advisory remains in effect until 10 am EST this
morning...

* locations... the Piedmont and foothills of the Carolinas and
northeast Georgia.

* Visibility... one quarter mile or less at times.

* Impacts... dense fog will lower visibility to the Point of
making driving conditions hazardous.

Precautionary/preparedness actions...

A dense fog advisory means visibilities will frequently be
reduced to less than one quarter mile. If driving... slow down...
use your headlights... and leave plenty of distance ahead of you.


Lane